sensor_id;sensor_type;location;lat;lon;timestamp;pressure;altitude;pressure_sealevel;temperature;humidity
56456;BME280;42354;53.218;6.564;2023-07-28T00:01:50;47233.53;;;-142.92;100.00
56456;BME280;42354;53.218;6.564;2023-07-28T00:04:16;47231.50;;;-142.92;100.00
56456;BME280;42354;53.218;6.564;2023-07-28T00:06:41;47231.50;;;-142.92;100.00
56456;BME280;42354;53.218;6.564;2023-07-28T00:09:06;47231.50;;;-142.92;100.00
56456;BME280;42354;53.218;6.564;2023-07-28T00:11:32;47233.53;;;-142.92;100.00
56456;BME280;42354;53.218;6.564;2023-07-28T00:13:57;47233.53;;;-142.92;100.00
56456;BME280;42354;53.218;6.564;2023-07-28T00:16:23;47233.53;;;-142.92;100.00
56456;BME280;42354;53.218;6.564;2023-07-28T00:18:48;47235.59;;;-142.92;100.00
56456;BME280;42354;53.218;6.564;2023-07-28T00:21:13;47233.53;;;-142.92;100.00
56456;BME280;42354;53.218;6.564;2023-07-28T00:23:39;47231.50;;;-142.92;100.00
56456;BME280;42354;53.218;6.564;2023-07-28T00:26:05;47233.53;;;-142.92;100.00
56456;BME280;42354;53.218;6.564;2023-07-28T00:28:31;47229.44;;;-142.92;100.00
56456;BME280;42354;53.218;6.564;2023-07-28T00:30:56;47235.59;;;-142.92;100.00
56456;BME280;42354;53.218;6.564;2023-07-28T00:33:22;47237.66;;;-142.92;100.00
56456;BME280;42354;53.218;6.564;2023-07-28T00:35:47;47239.69;;;-142.92;100.00
56456;BME280;42354;53.218;6.564;2023-07-28T00:38:13;47237.66;;;-142.92;100.00
56456;BME280;42354;53.218;6.564;2023-07-28T00:40:39;47235.59;;;-142.92;100.00
56456;BME280;42354;53.218;6.564;2023-07-28T00:43:04;47235.59;;;-142.92;100.00
56456;BME280;42354;53.218;6.564;2023-07-28T00:45:30;47235.59;;;-142.92;100.00
56456;BME280;42354;53.218;6.564;2023-07-28T00:47:57;47237.66;;;-142.92;100.00
56456;BME280;42354;53.218;6.564;2023-07-28T00:50:23;47237.66;;;-142.92;100.00
56456;BME280;42354;53.218;6.564;2023-07-28T00:52:49;47233.53;;;-142.92;100.00
56456;BME280;42354;53.218;6.564;2023-07-28T00:55:15;47233.53;;;-142.92;100.00
56456;BME280;42354;53.218;6.564;2023-07-28T00:57:41;47237.66;;;-142.92;100.00
56456;BME280;42354;53.218;6.564;2023-07-28T01:00:07;47231.50;;;-142.92;100.00
56456;BME280;42354;53.218;6.564;2023-07-28T01:02:32;47231.50;;;-142.92;100.00
56456;BME280;42354;53.218;6.564;2023-07-28T01:04:58;47233.53;;;-142.92;100.00
56456;BME280;42354;53.218;6.564;2023-07-28T01:07:46;47237.66;;;-142.92;100.00
56456;BME280;42354;53.218;6.564;2023-07-28T01:10:18;47233.53;;;-142.92;100.00
56456;BME280;42354;53.218;6.564;2023-07-28T01:12:47;47237.66;;;-142.92;100.00
56456;BME280;42354;53.218;6.564;2023-07-28T01:15:13;47237.66;;;-142.92;100.00
56456;BME280;42354;53.218;6.564;2023-07-28T01:17:41;47237.66;;;-142.92;100.00
56456;BME280;42354;53.218;6.564;2023-07-28T01:20:07;47233.53;;;-142.92;100.00
56456;BME280;42354;53.218;6.564;2023-07-28T01:25:39;47237.66;;;-142.92;100.00
56456;BME280;42354;53.218;6.564;2023-07-28T01:28:09;47237.66;;;-142.92;100.00
56456;BME280;42354;53.218;6.564;2023-07-28T01:30:36;47235.59;;;-142.92;100.00
56456;BME280;42354;53.218;6.564;2023-07-28T01:33:06;47235.59;;;-142.92;100.00
56456;BME280;42354;53.218;6.564;2023-07-28T01:35:31;47233.53;;;-142.92;100.00
56456;BME280;42354;53.218;6.564;2023-07-28T01:37:57;47237.66;;;-142.92;100.00
56456;BME280;42354;53.218;6.564;2023-07-28T01:40:22;47241.75;;;-142.92;100.00
56456;BME280;42354;53.218;6.564;2023-07-28T01:42:47;47237.66;;;-142.92;100.00
56456;BME280;42354;53.218;6.564;2023-07-28T01:45:13;47233.53;;;-142.92;100.00
56456;BME280;42354;53.218;6.564;2023-07-28T01:47:38;47235.59;;;-142.92;100.00
56456;BME280;42354;53.218;6.564;2023-07-28T01:50:04;47237.66;;;-142.92;100.00
56456;BME280;42354;53.218;6.564;2023-07-28T01:52:29;47237.66;;;-142.92;100.00
56456;BME280;42354;53.218;6.564;2023-07-28T01:54:55;47233.53;;;-142.92;100.00
56456;BME280;42354;53.218;6.564;2023-07-28T01:57:20;47231.50;;;-142.92;100.00
56456;BME280;42354;53.218;6.564;2023-07-28T01:59:45;47237.66;;;-142.92;100.00
56456;BME280;42354;53.218;6.564;2023-07-28T02:02:11;47235.59;;;-142.92;100.00
56456;BME280;42354;53.218;6.564;2023-07-28T02:04:36;47233.53;;;-142.92;100.00
56456;BME280;42354;53.218;6.564;2023-07-28T02:07:02;47237.66;;;-142.92;100.00
56456;BME280;42354;53.218;6.564;2023-07-28T02:09:27;47235.59;;;-142.92;100.00
56456;BME280;42354;53.218;6.564;2023-07-28T02:11:52;47235.59;;;-142.92;100.00
56456;BME280;42354;53.218;6.564;2023-07-28T02:14:18;47241.75;;;-142.92;100.00
56456;BME280;42354;53.218;6.564;2023-07-28T02:16:44;47239.69;;;-142.92;100.00
56456;BME280;42354;53.218;6.564;2023-07-28T02:19:10;47237.66;;;-142.92;100.00
56456;BME280;42354;53.218;6.564;2023-07-28T02:21:37;47241.75;;;-142.92;100.00
56456;BME280;42354;53.218;6.564;2023-07-28T02:24:03;47235.59;;;-142.92;100.00
56456;BME280;42354;53.218;6.564;2023-07-28T02:26:28;47235.59;;;-142.92;100.00
56456;BME280;42354;53.218;6.564;2023-07-28T02:28:53;47235.59;;;-142.92;100.00
56456;BME280;42354;53.218;6.564;2023-07-28T02:31:19;47237.66;;;-142.92;100.00
56456;BME280;42354;53.218;6.564;2023-07-28T02:33:44;47243.81;;;-142.92;100.00
56456;BME280;42354;53.218;6.564;2023-07-28T02:36:09;47239.69;;;-142.92;100.00
56456;BME280;42354;53.218;6.564;2023-07-28T02:38:35;47239.69;;;-142.92;100.00
56456;BME280;42354;53.218;6.564;2023-07-28T02:41:00;47239.69;;;-142.92;100.00
56456;BME280;42354;53.218;6.564;2023-07-28T02:43:28;47241.75;;;-142.92;100.00
56456;BME280;42354;53.218;6.564;2023-07-28T02:45:57;47243.81;;;-142.92;100.00
56456;BME280;42354;53.218;6.564;2023-07-28T02:48:22;47241.75;;;-142.92;100.00
56456;BME280;42354;53.218;6.564;2023-07-28T02:50:50;47245.84;;;-142.92;100.00
56456;BME280;42354;53.218;6.564;2023-07-28T02:53:15;47237.66;;;-142.92;100.00
56456;BME280;42354;53.218;6.564;2023-07-28T02:55:42;47241.75;;;-142.92;100.00
56456;BME280;42354;53.218;6.564;2023-07-28T02:58:08;47239.69;;;-142.92;100.00
56456;BME280;42354;53.218;6.564;2023-07-28T03:00:33;47245.84;;;-142.92;100.00
56456;BME280;42354;53.218;6.564;2023-07-28T03:02:58;47245.84;;;-142.92;100.00
56456;BME280;42354;53.218;6.564;2023-07-28T03:05:24;47241.75;;;-142.92;100.00
56456;BME280;42354;53.218;6.564;2023-07-28T03:07:49;47239.69;;;-142.92;100.00
56456;BME280;42354;53.218;6.564;2023-07-28T03:10:15;47239.69;;;-142.92;100.00
56456;BME280;42354;53.218;6.564;2023-07-28T03:12:42;47243.81;;;-142.92;100.00
56456;BME280;42354;53.218;6.564;2023-07-28T03:15:08;47237.66;;;-142.92;100.00
56456;BME280;42354;53.218;6.564;2023-07-28T03:17:33;47241.75;;;-142.92;100.00
56456;BME280;42354;53.218;6.564;2023-07-28T03:19:58;47243.81;;;-142.92;100.00
56456;BME280;42354;53.218;6.564;2023-07-28T03:22:24;47239.69;;;-142.92;100.00
56456;BME280;42354;53.218;6.564;2023-07-28T03:24:49;47241.75;;;-142.92;100.00
56456;BME280;42354;53.218;6.564;2023-07-28T03:27:15;47247.91;;;-142.92;100.00
56456;BME280;42354;53.218;6.564;2023-07-28T03:29:40;47241.75;;;-142.92;100.00
56456;BME280;42354;53.218;6.564;2023-07-28T03:32:05;47237.66;;;-142.92;100.00
56456;BME280;42354;53.218;6.564;2023-07-28T03:34:31;47239.69;;;-142.92;100.00
56456;BME280;42354;53.218;6.564;2023-07-28T03:36:56;47243.81;;;-142.92;100.00
56456;BME280;42354;53.218;6.564;2023-07-28T03:39:22;47237.66;;;-142.92;100.00
56456;BME280;42354;53.218;6.564;2023-07-28T03:41:47;47235.59;;;-142.92;100.00
56456;BME280;42354;53.218;6.564;2023-07-28T03:44:12;47239.69;;;-142.92;100.00
56456;BME280;42354;53.218;6.564;2023-07-28T03:46:38;47243.81;;;-142.92;100.00
56456;BME280;42354;53.218;6.564;2023-07-28T03:49:03;47239.69;;;-142.92;100.00
56456;BME280;42354;53.218;6.564;2023-07-28T03:51:29;47241.75;;;-142.92;100.00
56456;BME280;42354;53.218;6.564;2023-07-28T03:53:54;47237.66;;;-142.92;100.00
56456;BME280;42354;53.218;6.564;2023-07-28T03:56:19;47233.53;;;-142.92;100.00
56456;BME280;42354;53.218;6.564;2023-07-28T03:58:45;47241.75;;;-142.92;100.00
56456;BME280;42354;53.218;6.564;2023-07-28T04:01:10;47239.69;;;-142.92;100.00
56456;BME280;42354;53.218;6.564;2023-07-28T04:03:35;47235.59;;;-142.92;100.00
56456;BME280;42354;53.218;6.564;2023-07-28T04:06:05;47241.75;;;-142.92;100.00
56456;BME280;42354;53.218;6.564;2023-07-28T04:08:32;47239.69;;;-142.92;100.00
56456;BME280;42354;53.218;6.564;2023-07-28T04:10:57;47241.75;;;-142.92;100.00
56456;BME280;42354;53.218;6.564;2023-07-28T04:13:22;47243.81;;;-142.92;100.00
56456;BME280;42354;53.218;6.564;2023-07-28T04:15:48;47237.66;;;-142.92;100.00
56456;BME280;42354;53.218;6.564;2023-07-28T04:18:13;47237.66;;;-142.92;100.00
56456;BME280;42354;53.218;6.564;2023-07-28T04:20:38;47237.66;;;-142.92;100.00
56456;BME280;42354;53.218;6.564;2023-07-28T04:23:04;47239.69;;;-142.92;100.00
56456;BME280;42354;53.218;6.564;2023-07-28T04:25:29;47237.66;;;-142.92;100.00
56456;BME280;42354;53.218;6.564;2023-07-28T04:27:54;47241.75;;;-142.92;100.00
56456;BME280;42354;53.218;6.564;2023-07-28T04:30:21;47239.69;;;-142.92;100.00
56456;BME280;42354;53.218;6.564;2023-07-28T04:32:47;47241.75;;;-142.92;100.00
56456;BME280;42354;53.218;6.564;2023-07-28T04:35:12;47241.75;;;-142.92;100.00
56456;BME280;42354;53.218;6.564;2023-07-28T04:37:38;47237.66;;;-142.92;100.00
56456;BME280;42354;53.218;6.564;2023-07-28T04:40:04;47233.53;;;-142.92;100.00
56456;BME280;42354;53.218;6.564;2023-07-28T04:42:29;47233.53;;;-142.92;100.00
56456;BME280;42354;53.218;6.564;2023-07-28T04:44:55;47235.59;;;-142.92;100.00
56456;BME280;42354;53.218;6.564;2023-07-28T04:47:20;47235.59;;;-142.92;100.00
56456;BME280;42354;53.218;6.564;2023-07-28T04:49:46;47237.66;;;-142.92;100.00
56456;BME280;42354;53.218;6.564;2023-07-28T04:52:11;47231.50;;;-142.92;100.00
56456;BME280;42354;53.218;6.564;2023-07-28T04:54:36;47237.66;;;-142.92;100.00
56456;BME280;42354;53.218;6.564;2023-07-28T04:57:02;47237.66;;;-142.92;100.00
56456;BME280;42354;53.218;6.564;2023-07-28T04:59:27;47229.44;;;-142.92;100.00
56456;BME280;42354;53.218;6.564;2023-07-28T05:01:52;47229.44;;;-142.92;100.00
56456;BME280;42354;53.218;6.564;2023-07-28T05:04:18;47231.50;;;-142.92;100.00
56456;BME280;42354;53.218;6.564;2023-07-28T05:06:44;47237.66;;;-142.92;100.00
56456;BME280;42354;53.218;6.564;2023-07-28T05:09:09;47241.75;;;-142.92;100.00
56456;BME280;42354;53.218;6.564;2023-07-28T05:11:35;47237.66;;;-142.92;100.00
56456;BME280;42354;53.218;6.564;2023-07-28T05:14:00;47235.59;;;-142.92;100.00
56456;BME280;42354;53.218;6.564;2023-07-28T05:16:26;47237.66;;;-142.92;100.00
56456;BME280;42354;53.218;6.564;2023-07-28T05:18:51;47229.44;;;-142.92;100.00
56456;BME280;42354;53.218;6.564;2023-07-28T05:21:16;47237.66;;;-142.92;100.00
56456;BME280;42354;53.218;6.564;2023-07-28T05:23:42;47233.53;;;-142.92;100.00
56456;BME280;42354;53.218;6.564;2023-07-28T05:26:07;47235.59;;;-142.92;100.00
56456;BME280;42354;53.218;6.564;2023-07-28T05:28:34;47233.53;;;-142.92;100.00
56456;BME280;42354;53.218;6.564;2023-07-28T05:31:04;47231.50;;;-142.92;100.00
56456;BME280;42354;53.218;6.564;2023-07-28T05:33:30;47233.53;;;-142.92;100.00
56456;BME280;42354;53.218;6.564;2023-07-28T05:35:59;47233.53;;;-142.92;100.00
56456;BME280;42354;53.218;6.564;2023-07-28T05:38:25;47237.66;;;-142.92;100.00
56456;BME280;42354;53.218;6.564;2023-07-28T05:40:59;47233.53;;;-142.92;100.00
56456;BME280;42354;53.218;6.564;2023-07-28T05:43:29;47235.59;;;-142.92;100.00
56456;BME280;42354;53.218;6.564;2023-07-28T05:45:56;47235.59;;;-142.92;100.00
56456;BME280;42354;53.218;6.564;2023-07-28T05:48:21;47235.59;;;-142.92;100.00
56456;BME280;42354;53.218;6.564;2023-07-28T05:50:47;47233.53;;;-142.92;100.00
56456;BME280;42354;53.218;6.564;2023-07-28T05:53:13;47231.50;;;-142.92;100.00
56456;BME280;42354;53.218;6.564;2023-07-28T05:55:39;47235.59;;;-142.92;100.00
56456;BME280;42354;53.218;6.564;2023-07-28T05:58:04;47237.66;;;-142.92;100.00
56456;BME280;42354;53.218;6.564;2023-07-28T06:00:30;47237.66;;;-142.92;100.00
56456;BME280;42354;53.218;6.564;2023-07-28T06:02:56;47235.59;;;-142.92;100.00
56456;BME280;42354;53.218;6.564;2023-07-28T06:05:22;47237.66;;;-142.92;100.00
56456;BME280;42354;53.218;6.564;2023-07-28T06:07:47;47237.66;;;-142.92;100.00
56456;BME280;42354;53.218;6.564;2023-07-28T06:10:13;47241.75;;;-142.92;100.00
56456;BME280;42354;53.218;6.564;2023-07-28T06:12:38;47241.75;;;-142.92;100.00
56456;BME280;42354;53.218;6.564;2023-07-28T06:15:04;47239.69;;;-142.92;100.00
56456;BME280;42354;53.218;6.564;2023-07-28T06:17:30;47237.66;;;-142.92;100.00
56456;BME280;42354;53.218;6.564;2023-07-28T06:19:55;47241.75;;;-142.92;100.00
56456;BME280;42354;53.218;6.564;2023-07-28T06:22:21;47241.75;;;-142.92;100.00
56456;BME280;42354;53.218;6.564;2023-07-28T06:24:46;47229.44;;;-142.92;100.00
56456;BME280;42354;53.218;6.564;2023-07-28T06:27:12;47208.91;;;-142.92;100.00
56456;BME280;42354;53.218;6.564;2023-07-28T06:29:37;47217.13;;;-142.92;100.00
56456;BME280;42354;53.218;6.564;2023-07-28T06:32:03;47208.91;;;-142.92;100.00
56456;BME280;42354;53.218;6.564;2023-07-28T06:34:28;47223.28;;;-142.92;100.00
56456;BME280;42354;53.218;6.564;2023-07-28T06:36:54;47227.38;;;-142.92;100.00
56456;BME280;42354;53.218;6.564;2023-07-28T06:39:19;47225.34;;;-142.92;100.00
56456;BME280;42354;53.218;6.564;2023-07-28T06:41:44;47245.84;;;-142.92;100.00
56456;BME280;42354;53.218;6.564;2023-07-28T06:44:10;47237.66;;;-142.92;100.00
56456;BME280;42354;53.218;6.564;2023-07-28T06:46:35;47182.22;;;-142.92;100.00
56456;BME280;42354;53.218;6.564;2023-07-28T06:49:01;47100.16;;;-142.92;100.00
56456;BME280;42354;53.218;6.564;2023-07-28T06:51:26;47100.16;;;-142.92;100.00
56456;BME280;42354;53.218;6.564;2023-07-28T06:53:52;47137.09;;;-142.92;100.00
56456;BME280;42354;53.218;6.564;2023-07-28T06:56:17;47100.16;;;-142.92;100.00
56456;BME280;42354;53.218;6.564;2023-07-28T06:58:43;47114.50;;;-142.92;100.00
56456;BME280;42354;53.218;6.564;2023-07-28T07:01:08;47075.53;;;-142.92;100.00
56456;BME280;42354;53.218;6.564;2023-07-28T07:03:36;47040.63;;;-142.92;100.00
56456;BME280;42354;53.218;6.564;2023-07-28T07:06:02;47075.53;;;-142.92;100.00
56456;BME280;42354;53.218;6.564;2023-07-28T07:08:27;46837.50;;;-142.92;100.00
56456;BME280;42354;53.218;6.564;2023-07-28T07:10:53;47009.84;;;-142.92;100.00
56456;BME280;42354;53.218;6.564;2023-07-28T07:13:18;47007.81;;;-142.92;100.00
56456;BME280;42354;53.218;6.564;2023-07-28T07:15:44;46987.28;;;-142.92;100.00
56456;BME280;42354;53.218;6.564;2023-07-28T07:18:10;47009.84;;;-142.92;100.00
56456;BME280;42354;53.218;6.564;2023-07-28T07:20:37;46991.38;;;-142.92;100.00
56456;BME280;42354;53.218;6.564;2023-07-28T07:23:05;47003.69;;;-142.92;100.00
56456;BME280;42354;53.218;6.564;2023-07-28T07:25:31;47009.84;;;-142.92;100.00
56456;BME280;42354;53.218;6.564;2023-07-28T07:27:56;47001.66;;;-142.92;100.00
56456;BME280;42354;53.218;6.564;2023-07-28T07:30:22;47009.84;;;-142.92;100.00
56456;BME280;42354;53.218;6.564;2023-07-28T07:32:47;46995.50;;;-142.92;100.00
56456;BME280;42354;53.218;6.564;2023-07-28T07:35:12;47003.69;;;-142.92;100.00
56456;BME280;42354;53.218;6.564;2023-07-28T07:37:38;46997.53;;;-142.92;100.00
56456;BME280;42354;53.218;6.564;2023-07-28T07:40:05;47001.66;;;-142.92;100.00
56456;BME280;42354;53.218;6.564;2023-07-28T07:42:48;47011.91;;;-142.92;100.00
56456;BME280;42354;53.218;6.564;2023-07-28T07:45:14;47013.97;;;-142.92;100.00
56456;BME280;42354;53.218;6.564;2023-07-28T07:47:41;47011.91;;;-142.92;100.00
56456;BME280;42354;53.218;6.564;2023-07-28T07:50:07;47005.75;;;-142.92;100.00
56456;BME280;42354;53.218;6.564;2023-07-28T07:52:36;46999.59;;;-142.92;100.00
56456;BME280;42354;53.218;6.564;2023-07-28T07:55:03;46999.59;;;-142.92;100.00
56456;BME280;42354;53.218;6.564;2023-07-28T07:57:29;46991.38;;;-142.92;100.00
56456;BME280;42354;53.218;6.564;2023-07-28T07:59:54;47005.75;;;-142.92;100.00
56456;BME280;42354;53.218;6.564;2023-07-28T08:02:20;46995.50;;;-142.92;100.00
56456;BME280;42354;53.218;6.564;2023-07-28T08:04:45;46999.59;;;-142.92;100.00
56456;BME280;42354;53.218;6.564;2023-07-28T08:07:11;47003.69;;;-142.92;100.00
56456;BME280;42354;53.218;6.564;2023-07-28T08:09:36;46991.38;;;-142.92;100.00
56456;BME280;42354;53.218;6.564;2023-07-28T08:12:02;46987.28;;;-142.92;100.00
56456;BME280;42354;53.218;6.564;2023-07-28T08:14:28;47001.66;;;-142.92;100.00
56456;BME280;42354;53.218;6.564;2023-07-28T08:16:54;46991.38;;;-142.92;100.00
56456;BME280;42354;53.218;6.564;2023-07-28T08:19:19;46991.38;;;-142.92;100.00
56456;BME280;42354;53.218;6.564;2023-07-28T08:21:45;46987.28;;;-142.92;100.00
56456;BME280;42354;53.218;6.564;2023-07-28T08:24:10;47007.81;;;-142.92;100.00
56456;BME280;42354;53.218;6.564;2023-07-28T08:26:37;47001.66;;;-142.92;100.00
56456;BME280;42354;53.218;6.564;2023-07-28T08:29:02;46995.50;;;-142.92;100.00
56456;BME280;42354;53.218;6.564;2023-07-28T08:31:28;47001.66;;;-142.92;100.00
56456;BME280;42354;53.218;6.564;2023-07-28T08:33:53;46995.50;;;-142.92;100.00
56456;BME280;42354;53.218;6.564;2023-07-28T08:36:19;46999.59;;;-142.92;100.00
56456;BME280;42354;53.218;6.564;2023-07-28T08:38:44;46999.59;;;-142.92;100.00
56456;BME280;42354;53.218;6.564;2023-07-28T08:41:10;46987.28;;;-142.92;100.00
56456;BME280;42354;53.218;6.564;2023-07-28T08:43:36;46987.28;;;-142.92;100.00
56456;BME280;42354;53.218;6.564;2023-07-28T08:46:02;47003.69;;;-142.92;100.00
56456;BME280;42354;53.218;6.564;2023-07-28T08:48:28;46987.28;;;-142.92;100.00
56456;BME280;42354;53.218;6.564;2023-07-28T08:50:54;46995.50;;;-142.92;100.00
56456;BME280;42354;53.218;6.564;2023-07-28T08:53:19;46993.44;;;-142.92;100.00
56456;BME280;42354;53.218;6.564;2023-07-28T08:55:45;46987.28;;;-142.92;100.00
56456;BME280;42354;53.218;6.564;2023-07-28T08:58:15;46983.19;;;-142.92;100.00
56456;BME280;42354;53.218;6.564;2023-07-28T09:00:41;46999.59;;;-142.92;100.00
56456;BME280;42354;53.218;6.564;2023-07-28T09:03:08;46993.44;;;-142.92;100.00
56456;BME280;42354;53.218;6.564;2023-07-28T09:05:34;46987.28;;;-142.92;100.00
56456;BME280;42354;53.218;6.564;2023-07-28T09:07:59;46987.28;;;-142.92;100.00
56456;BME280;42354;53.218;6.564;2023-07-28T09:10:25;47003.69;;;-142.92;100.00
56456;BME280;42354;53.218;6.564;2023-07-28T09:12:50;46993.44;;;-142.92;100.00
56456;BME280;42354;53.218;6.564;2023-07-28T09:15:16;47003.69;;;-142.92;100.00
56456;BME280;42354;53.218;6.564;2023-07-28T09:17:43;46999.59;;;-142.92;100.00
56456;BME280;42354;53.218;6.564;2023-07-28T09:20:13;46991.38;;;-142.92;100.00
56456;BME280;42354;53.218;6.564;2023-07-28T09:22:38;46991.38;;;-142.92;100.00
56456;BME280;42354;53.218;6.564;2023-07-28T09:25:14;46991.38;;;-142.92;100.00
56456;BME280;42354;53.218;6.564;2023-07-28T09:27:40;46991.38;;;-142.92;100.00
56456;BME280;42354;53.218;6.564;2023-07-28T09:30:06;46999.59;;;-142.92;100.00
56456;BME280;42354;53.218;6.564;2023-07-28T09:32:33;47003.69;;;-142.92;100.00
56456;BME280;42354;53.218;6.564;2023-07-28T09:35:10;46999.59;;;-142.92;100.00
56456;BME280;42354;53.218;6.564;2023-07-28T09:37:39;47007.81;;;-142.92;100.00
56456;BME280;42354;53.218;6.564;2023-07-28T09:40:09;46991.38;;;-142.92;99.36
56456;BME280;42354;53.218;6.564;2023-07-28T09:42:37;47003.69;;;-142.92;94.60
56456;BME280;42354;53.218;6.564;2023-07-28T09:45:04;46999.59;;;-142.92;94.87
56456;BME280;42354;53.218;6.564;2023-07-28T09:47:33;46987.28;;;-142.92;92.84
56456;BME280;42354;53.218;6.564;2023-07-28T09:50:02;46985.22;;;-142.92;89.01
56456;BME280;42354;53.218;6.564;2023-07-28T09:52:33;47009.84;;;-142.92;88.89
56456;BME280;42354;53.218;6.564;2023-07-28T09:55:00;46993.44;;;-142.92;89.67
56456;BME280;42354;53.218;6.564;2023-07-28T09:57:28;46987.28;;;-142.92;89.82
56456;BME280;42354;53.218;6.564;2023-07-28T09:59:55;47003.69;;;-142.92;89.87
56456;BME280;42354;53.218;6.564;2023-07-28T10:02:22;47003.69;;;-142.92;91.78
56456;BME280;42354;53.218;6.564;2023-07-28T10:04:48;46991.38;;;-142.92;89.00
56456;BME280;42354;53.218;6.564;2023-07-28T10:07:14;46993.44;;;-142.92;89.90
56456;BME280;42354;53.218;6.564;2023-07-28T10:09:40;47003.69;;;-142.92;92.80
56456;BME280;42354;53.218;6.564;2023-07-28T10:12:06;46985.22;;;-142.92;94.18
56456;BME280;42354;53.218;6.564;2023-07-28T10:14:35;46991.38;;;-142.92;91.63
56456;BME280;42354;53.218;6.564;2023-07-28T10:17:03;46991.38;;;-142.92;92.45
56456;BME280;42354;53.218;6.564;2023-07-28T10:19:29;46991.38;;;-142.92;92.88
56456;BME280;42354;53.218;6.564;2023-07-28T10:22:08;46999.59;;;-142.92;86.22
56456;BME280;42354;53.218;6.564;2023-07-28T10:24:54;46987.28;;;-142.92;86.42
56456;BME280;42354;53.218;6.564;2023-07-28T10:27:45;46985.22;;;-142.92;83.30
56456;BME280;42354;53.218;6.564;2023-07-28T10:30:12;46991.38;;;-142.92;84.82
56456;BME280;42354;53.218;6.564;2023-07-28T10:32:42;46991.38;;;-142.92;86.74
56456;BME280;42354;53.218;6.564;2023-07-28T10:37:38;46995.50;;;-142.92;88.38
56456;BME280;42354;53.218;6.564;2023-07-28T10:40:23;46991.38;;;-142.92;83.13
56456;BME280;42354;53.218;6.564;2023-07-28T10:42:50;46995.50;;;-142.92;78.74
56456;BME280;42354;53.218;6.564;2023-07-28T10:45:16;46991.38;;;-142.92;74.90
56456;BME280;42354;53.218;6.564;2023-07-28T10:47:41;46987.28;;;-142.92;74.23
56456;BME280;42354;53.218;6.564;2023-07-28T10:50:11;46989.34;;;-142.92;75.93
56456;BME280;42354;53.218;6.564;2023-07-28T10:52:41;46974.97;;;-142.92;74.87
56456;BME280;42354;53.218;6.564;2023-07-28T10:55:17;46991.38;;;-142.92;72.46
56456;BME280;42354;53.218;6.564;2023-07-28T10:57:44;46989.34;;;-142.92;71.95
56456;BME280;42354;53.218;6.564;2023-07-28T11:00:12;46972.91;;;-142.92;74.50
56456;BME280;42354;53.218;6.564;2023-07-28T11:02:41;46985.22;;;-142.92;74.36
56456;BME280;42354;53.218;6.564;2023-07-28T11:05:10;47001.66;;;-142.92;76.13
56456;BME280;42354;53.218;6.564;2023-07-28T11:07:41;46991.38;;;-142.92;78.25
56456;BME280;42354;53.218;6.564;2023-07-28T11:10:09;46993.44;;;-142.92;80.74
56456;BME280;42354;53.218;6.564;2023-07-28T11:12:34;47001.66;;;-142.92;81.04
56456;BME280;42354;53.218;6.564;2023-07-28T11:15:00;47001.66;;;-142.92;80.00
56456;BME280;42354;53.218;6.564;2023-07-28T11:17:26;46993.44;;;-142.92;78.48
56456;BME280;42354;53.218;6.564;2023-07-28T11:19:52;46983.19;;;-142.92;73.61
56456;BME280;42354;53.218;6.564;2023-07-28T11:22:18;46999.59;;;-142.92;72.89
56456;BME280;42354;53.218;6.564;2023-07-28T11:24:43;47001.66;;;-142.92;73.84
56456;BME280;42354;53.218;6.564;2023-07-28T11:27:10;46991.38;;;-142.92;76.54
56456;BME280;42354;53.218;6.564;2023-07-28T11:29:36;46999.59;;;-142.92;76.31
56456;BME280;42354;53.218;6.564;2023-07-28T11:32:01;46995.50;;;-142.92;75.42
56456;BME280;42354;53.218;6.564;2023-07-28T11:34:27;46979.06;;;-142.92;75.09
56456;BME280;42354;53.218;6.564;2023-07-28T11:36:52;47007.81;;;-142.92;76.45
56456;BME280;42354;53.218;6.564;2023-07-28T11:39:19;46983.19;;;-142.92;73.04
56456;BME280;42354;53.218;6.564;2023-07-28T11:41:47;46991.38;;;-142.92;71.11
56456;BME280;42354;53.218;6.564;2023-07-28T11:44:13;46979.06;;;-142.92;67.87
56456;BME280;42354;53.218;6.564;2023-07-28T11:46:41;46993.44;;;-142.92;68.34
56456;BME280;42354;53.218;6.564;2023-07-28T11:49:15;47003.69;;;-142.92;67.94
56456;BME280;42354;53.218;6.564;2023-07-28T11:51:52;46995.50;;;-142.92;66.27
56456;BME280;42354;53.218;6.564;2023-07-28T11:54:21;46991.38;;;-142.92;65.52
56456;BME280;42354;53.218;6.564;2023-07-28T11:56:50;46993.44;;;-142.92;67.30
56456;BME280;42354;53.218;6.564;2023-07-28T11:59:17;46981.13;;;-142.92;64.85
56456;BME280;42354;53.218;6.564;2023-07-28T12:02:01;46995.50;;;-142.92;64.59
56456;BME280;42354;53.218;6.564;2023-07-28T12:04:37;46989.34;;;-142.92;62.65
56456;BME280;42354;53.218;6.564;2023-07-28T12:07:08;46970.88;;;-142.92;61.73
56456;BME280;42354;53.218;6.564;2023-07-28T12:12:15;46999.59;;;-142.92;60.08
56456;BME280;42354;53.218;6.564;2023-07-28T12:14:40;46979.06;;;-142.92;60.68
56456;BME280;42354;53.218;6.564;2023-07-28T12:17:17;46987.28;;;-142.92;61.05
56456;BME280;42354;53.218;6.564;2023-07-28T12:20:01;46974.97;;;-142.92;62.90
56456;BME280;42354;53.218;6.564;2023-07-28T12:22:33;46981.13;;;-142.92;62.30
56456;BME280;42354;53.218;6.564;2023-07-28T12:24:58;46983.19;;;-142.92;61.51
56456;BME280;42354;53.218;6.564;2023-07-28T12:27:23;46985.22;;;-142.92;59.02
56456;BME280;42354;53.218;6.564;2023-07-28T12:29:50;46989.34;;;-142.92;60.77
56456;BME280;42354;53.218;6.564;2023-07-28T12:32:16;46999.59;;;-142.92;62.59
56456;BME280;42354;53.218;6.564;2023-07-28T12:34:42;46983.19;;;-142.92;65.20
56456;BME280;42354;53.218;6.564;2023-07-28T12:37:07;46979.06;;;-142.92;63.57
56456;BME280;42354;53.218;6.564;2023-07-28T12:39:36;46972.91;;;-142.92;61.12